sensor_id;sensor_type;location;lat;lon;timestamp;P1;durP1;ratioP1;P2;durP2;ratioP2
77451;SDS011;66537;52.370;4.832;2024-03-06T00:00:39;38.08;;;17.75;;
77451;SDS011;66537;52.370;4.832;2024-03-06T00:03:05;39.70;;;18.85;;
77451;SDS011;66537;52.370;4.832;2024-03-06T00:05:30;35.03;;;16.67;;
77451;SDS011;66537;52.370;4.832;2024-03-06T00:07:56;35.47;;;17.73;;
77451;SDS011;66537;52.370;4.832;2024-03-06T00:10:21;33.17;;;17.67;;
77451;SDS011;66537;52.370;4.832;2024-03-06T00:12:46;35.30;;;17.98;;
77451;SDS011;66537;52.370;4.832;2024-03-06T00:15:12;35.72;;;16.33;;
77451;SDS011;66537;52.370;4.832;2024-03-06T00:17:37;36.92;;;17.73;;
77451;SDS011;66537;52.370;4.832;2024-03-06T00:20:03;36.27;;;16.67;;
77451;SDS011;66537;52.370;4.832;2024-03-06T00:22:30;38.92;;;18.00;;
77451;SDS011;66537;52.370;4.832;2024-03-06T00:24:55;37.63;;;17.45;;
77451;SDS011;66537;52.370;4.832;2024-03-06T00:27:21;33.83;;;16.93;;
77451;SDS011;66537;52.370;4.832;2024-03-06T00:29:46;34.50;;;17.20;;
77451;SDS011;66537;52.370;4.832;2024-03-06T00:32:14;37.17;;;16.73;;
77451;SDS011;66537;52.370;4.832;2024-03-06T00:34:39;34.22;;;16.20;;
77451;SDS011;66537;52.370;4.832;2024-03-06T00:37:05;38.92;;;17.50;;
77451;SDS011;66537;52.370;4.832;2024-03-06T00:39:30;37.17;;;17.23;;
77451;SDS011;66537;52.370;4.832;2024-03-06T00:41:55;32.97;;;16.83;;
77451;SDS011;66537;52.370;4.832;2024-03-06T00:44:21;34.40;;;15.32;;
77451;SDS011;66537;52.370;4.832;2024-03-06T00:46:46;27.73;;;13.98;;
77451;SDS011;66537;52.370;4.832;2024-03-06T00:49:12;26.95;;;13.50;;
77451;SDS011;66537;52.370;4.832;2024-03-06T00:51:37;28.73;;;14.35;;
77451;SDS011;66537;52.370;4.832;2024-03-06T00:54:03;25.33;;;12.75;;
77451;SDS011;66537;52.370;4.832;2024-03-06T00:56:29;30.30;;;14.77;;
77451;SDS011;66537;52.370;4.832;2024-03-06T00:58:55;29.58;;;14.38;;
77451;SDS011;66537;52.370;4.832;2024-03-06T01:01:21;28.40;;;14.48;;
77451;SDS011;66537;52.370;4.832;2024-03-06T01:03:46;26.10;;;13.43;;
77451;SDS011;66537;52.370;4.832;2024-03-06T01:06:12;31.40;;;15.73;;
77451;SDS011;66537;52.370;4.832;2024-03-06T01:08:38;27.60;;;13.38;;
77451;SDS011;66537;52.370;4.832;2024-03-06T01:11:03;28.50;;;15.13;;
77451;SDS011;66537;52.370;4.832;2024-03-06T01:13:29;27.80;;;14.30;;
77451;SDS011;66537;52.370;4.832;2024-03-06T01:15:55;27.38;;;14.43;;
77451;SDS011;66537;52.370;4.832;2024-03-06T01:18:20;27.27;;;13.80;;
77451;SDS011;66537;52.370;4.832;2024-03-06T01:20:45;29.02;;;15.10;;
77451;SDS011;66537;52.370;4.832;2024-03-06T01:23:11;36.40;;;16.13;;
77451;SDS011;66537;52.370;4.832;2024-03-06T01:25:36;31.77;;;16.95;;
77451;SDS011;66537;52.370;4.832;2024-03-06T01:28:02;32.43;;;16.07;;
77451;SDS011;66537;52.370;4.832;2024-03-06T01:30:27;29.50;;;15.55;;
77451;SDS011;66537;52.370;4.832;2024-03-06T01:32:52;32.03;;;15.37;;
77451;SDS011;66537;52.370;4.832;2024-03-06T01:35:18;38.67;;;18.20;;
77451;SDS011;66537;52.370;4.832;2024-03-06T01:37:44;38.90;;;17.05;;
77451;SDS011;66537;52.370;4.832;2024-03-06T01:40:09;39.05;;;17.73;;
77451;SDS011;66537;52.370;4.832;2024-03-06T01:42:35;35.60;;;17.95;;
77451;SDS011;66537;52.370;4.832;2024-03-06T01:45:01;37.92;;;19.00;;
77451;SDS011;66537;52.370;4.832;2024-03-06T01:47:27;42.75;;;19.40;;
77451;SDS011;66537;52.370;4.832;2024-03-06T01:49:52;40.13;;;19.65;;
77451;SDS011;66537;52.370;4.832;2024-03-06T01:52:18;37.78;;;19.10;;
77451;SDS011;66537;52.370;4.832;2024-03-06T01:54:46;42.55;;;20.00;;
77451;SDS011;66537;52.370;4.832;2024-03-06T01:57:15;46.47;;;21.95;;
77451;SDS011;66537;52.370;4.832;2024-03-06T01:59:42;51.55;;;22.55;;
77451;SDS011;66537;52.370;4.832;2024-03-06T02:02:08;52.10;;;23.23;;
77451;SDS011;66537;52.370;4.832;2024-03-06T02:04:36;53.17;;;24.98;;
77451;SDS011;66537;52.370;4.832;2024-03-06T02:07:02;49.22;;;22.77;;
77451;SDS011;66537;52.370;4.832;2024-03-06T02:09:27;53.42;;;25.20;;
77451;SDS011;66537;52.370;4.832;2024-03-06T02:11:53;46.47;;;23.17;;
77451;SDS011;66537;52.370;4.832;2024-03-06T02:14:18;50.22;;;23.55;;
77451;SDS011;66537;52.370;4.832;2024-03-06T02:16:44;49.50;;;23.70;;
77451;SDS011;66537;52.370;4.832;2024-03-06T02:19:09;55.93;;;25.83;;
77451;SDS011;66537;52.370;4.832;2024-03-06T02:21:34;52.17;;;25.20;;
77451;SDS011;66537;52.370;4.832;2024-03-06T02:24:00;52.42;;;25.17;;
77451;SDS011;66537;52.370;4.832;2024-03-06T02:26:25;59.53;;;26.35;;
77451;SDS011;66537;52.370;4.832;2024-03-06T02:28:52;51.55;;;26.25;;
77451;SDS011;66537;52.370;4.832;2024-03-06T02:31:19;59.65;;;27.40;;
77451;SDS011;66537;52.370;4.832;2024-03-06T02:33:45;52.53;;;25.60;;
77451;SDS011;66537;52.370;4.832;2024-03-06T02:36:17;61.10;;;28.08;;
77451;SDS011;66537;52.370;4.832;2024-03-06T02:38:43;58.35;;;27.70;;
77451;SDS011;66537;52.370;4.832;2024-03-06T02:41:09;66.43;;;29.08;;
77451;SDS011;66537;52.370;4.832;2024-03-06T02:43:35;53.90;;;26.77;;
77451;SDS011;66537;52.370;4.832;2024-03-06T02:46:01;57.20;;;26.73;;
77451;SDS011;66537;52.370;4.832;2024-03-06T02:48:27;60.90;;;29.20;;
77451;SDS011;66537;52.370;4.832;2024-03-06T02:50:52;59.67;;;27.05;;
77451;SDS011;66537;52.370;4.832;2024-03-06T02:53:17;59.35;;;27.63;;
77451;SDS011;66537;52.370;4.832;2024-03-06T02:55:43;55.05;;;26.95;;
77451;SDS011;66537;52.370;4.832;2024-03-06T02:58:08;54.17;;;26.80;;
77451;SDS011;66537;52.370;4.832;2024-03-06T03:00:33;49.60;;;24.92;;
77451;SDS011;66537;52.370;4.832;2024-03-06T03:02:59;57.97;;;27.20;;
77451;SDS011;66537;52.370;4.832;2024-03-06T03:05:24;56.13;;;27.00;;
77451;SDS011;66537;52.370;4.832;2024-03-06T03:07:50;57.75;;;27.15;;
77451;SDS011;66537;52.370;4.832;2024-03-06T03:10:16;62.17;;;27.92;;
77451;SDS011;66537;52.370;4.832;2024-03-06T03:12:41;51.05;;;25.95;;
77451;SDS011;66537;52.370;4.832;2024-03-06T03:15:07;60.45;;;29.10;;
77451;SDS011;66537;52.370;4.832;2024-03-06T03:17:33;55.67;;;26.63;;
77451;SDS011;66537;52.370;4.832;2024-03-06T03:19:59;56.15;;;26.52;;
77451;SDS011;66537;52.370;4.832;2024-03-06T03:22:24;56.95;;;28.17;;
77451;SDS011;66537;52.370;4.832;2024-03-06T03:24:50;60.55;;;28.92;;
77451;SDS011;66537;52.370;4.832;2024-03-06T03:27:15;56.87;;;27.33;;
77451;SDS011;66537;52.370;4.832;2024-03-06T03:29:40;54.05;;;26.98;;
77451;SDS011;66537;52.370;4.832;2024-03-06T03:32:06;64.13;;;29.90;;
77451;SDS011;66537;52.370;4.832;2024-03-06T03:34:32;60.53;;;27.80;;
77451;SDS011;66537;52.370;4.832;2024-03-06T03:36:59;57.38;;;27.77;;
77451;SDS011;66537;52.370;4.832;2024-03-06T03:39:24;58.90;;;27.40;;
77451;SDS011;66537;52.370;4.832;2024-03-06T03:41:50;62.30;;;30.40;;
77451;SDS011;66537;52.370;4.832;2024-03-06T03:44:16;63.17;;;29.58;;
77451;SDS011;66537;52.370;4.832;2024-03-06T03:46:43;59.45;;;28.92;;
77451;SDS011;66537;52.370;4.832;2024-03-06T03:49:09;59.05;;;26.73;;
77451;SDS011;66537;52.370;4.832;2024-03-06T03:51:35;60.72;;;28.33;;
77451;SDS011;66537;52.370;4.832;2024-03-06T03:54:01;58.17;;;27.75;;
77451;SDS011;66537;52.370;4.832;2024-03-06T03:56:26;60.42;;;28.15;;
77451;SDS011;66537;52.370;4.832;2024-03-06T03:58:52;61.15;;;27.45;;
77451;SDS011;66537;52.370;4.832;2024-03-06T04:01:17;62.63;;;28.83;;
77451;SDS011;66537;52.370;4.832;2024-03-06T04:03:43;57.27;;;26.60;;
77451;SDS011;66537;52.370;4.832;2024-03-06T04:06:09;53.83;;;26.08;;
77451;SDS011;66537;52.370;4.832;2024-03-06T04:08:35;56.35;;;27.55;;
77451;SDS011;66537;52.370;4.832;2024-03-06T04:11:01;57.92;;;28.20;;
77451;SDS011;66537;52.370;4.832;2024-03-06T04:13:26;58.75;;;28.02;;
77451;SDS011;66537;52.370;4.832;2024-03-06T04:15:52;57.13;;;27.40;;
77451;SDS011;66537;52.370;4.832;2024-03-06T04:18:17;55.57;;;27.00;;
77451;SDS011;66537;52.370;4.832;2024-03-06T04:20:42;57.80;;;26.13;;
77451;SDS011;66537;52.370;4.832;2024-03-06T04:23:08;58.65;;;27.33;;
77451;SDS011;66537;52.370;4.832;2024-03-06T04:25:33;56.85;;;26.25;;
77451;SDS011;66537;52.370;4.832;2024-03-06T04:27:58;58.07;;;28.70;;
77451;SDS011;66537;52.370;4.832;2024-03-06T04:30:23;56.33;;;27.03;;
77451;SDS011;66537;52.370;4.832;2024-03-06T04:32:50;57.03;;;27.25;;
77451;SDS011;66537;52.370;4.832;2024-03-06T04:35:18;59.58;;;29.33;;
77451;SDS011;66537;52.370;4.832;2024-03-06T04:37:43;54.60;;;26.33;;
77451;SDS011;66537;52.370;4.832;2024-03-06T04:40:09;58.22;;;26.55;;
77451;SDS011;66537;52.370;4.832;2024-03-06T04:42:35;56.08;;;26.85;;
77451;SDS011;66537;52.370;4.832;2024-03-06T04:45:01;54.70;;;27.17;;
77451;SDS011;66537;52.370;4.832;2024-03-06T04:47:28;54.42;;;27.08;;
77451;SDS011;66537;52.370;4.832;2024-03-06T04:49:54;55.00;;;27.50;;
77451;SDS011;66537;52.370;4.832;2024-03-06T04:52:19;53.40;;;26.88;;
77451;SDS011;66537;52.370;4.832;2024-03-06T04:54:44;54.42;;;26.67;;
77451;SDS011;66537;52.370;4.832;2024-03-06T04:57:10;55.78;;;26.98;;
77451;SDS011;66537;52.370;4.832;2024-03-06T04:59:35;58.67;;;28.80;;
77451;SDS011;66537;52.370;4.832;2024-03-06T05:02:01;58.28;;;29.27;;
77451;SDS011;66537;52.370;4.832;2024-03-06T05:04:28;59.10;;;28.48;;
77451;SDS011;66537;52.370;4.832;2024-03-06T05:06:53;56.40;;;26.37;;
77451;SDS011;66537;52.370;4.832;2024-03-06T05:09:18;55.58;;;26.70;;
77451;SDS011;66537;52.370;4.832;2024-03-06T05:11:44;59.03;;;28.63;;
77451;SDS011;66537;52.370;4.832;2024-03-06T05:14:09;56.50;;;28.37;;
77451;SDS011;66537;52.370;4.832;2024-03-06T05:16:34;59.45;;;28.77;;
77451;SDS011;66537;52.370;4.832;2024-03-06T05:19:00;51.80;;;25.87;;
77451;SDS011;66537;52.370;4.832;2024-03-06T05:21:26;58.35;;;28.17;;
77451;SDS011;66537;52.370;4.832;2024-03-06T05:23:51;53.05;;;25.35;;
77451;SDS011;66537;52.370;4.832;2024-03-06T05:26:17;54.97;;;28.13;;
77451;SDS011;66537;52.370;4.832;2024-03-06T05:28:42;56.47;;;28.30;;
77451;SDS011;66537;52.370;4.832;2024-03-06T05:31:18;55.87;;;28.67;;
77451;SDS011;66537;52.370;4.832;2024-03-06T05:33:44;57.00;;;28.83;;
77451;SDS011;66537;52.370;4.832;2024-03-06T05:36:11;48.35;;;25.65;;
77451;SDS011;66537;52.370;4.832;2024-03-06T05:38:38;59.30;;;28.35;;
77451;SDS011;66537;52.370;4.832;2024-03-06T05:41:03;54.17;;;26.73;;
77451;SDS011;66537;52.370;4.832;2024-03-06T05:43:29;57.53;;;27.83;;
77451;SDS011;66537;52.370;4.832;2024-03-06T05:45:54;55.27;;;27.97;;
77451;SDS011;66537;52.370;4.832;2024-03-06T05:48:19;50.03;;;25.93;;
77451;SDS011;66537;52.370;4.832;2024-03-06T05:50:45;51.95;;;27.13;;
77451;SDS011;66537;52.370;4.832;2024-03-06T05:53:10;56.47;;;28.00;;
77451;SDS011;66537;52.370;4.832;2024-03-06T05:55:36;52.70;;;27.25;;
77451;SDS011;66537;52.370;4.832;2024-03-06T05:58:02;55.92;;;27.92;;
77451;SDS011;66537;52.370;4.832;2024-03-06T06:00:27;61.13;;;30.08;;
77451;SDS011;66537;52.370;4.832;2024-03-06T06:02:52;51.93;;;25.97;;
77451;SDS011;66537;52.370;4.832;2024-03-06T06:05:18;59.47;;;29.67;;
77451;SDS011;66537;52.370;4.832;2024-03-06T06:07:47;49.85;;;26.20;;
77451;SDS011;66537;52.370;4.832;2024-03-06T06:10:13;54.00;;;27.20;;
77451;SDS011;66537;52.370;4.832;2024-03-06T06:12:39;55.83;;;26.10;;
77451;SDS011;66537;52.370;4.832;2024-03-06T06:15:04;49.67;;;25.55;;
77451;SDS011;66537;52.370;4.832;2024-03-06T06:17:32;51.55;;;25.50;;
77451;SDS011;66537;52.370;4.832;2024-03-06T06:19:57;55.92;;;26.88;;
77451;SDS011;66537;52.370;4.832;2024-03-06T06:22:23;47.92;;;25.90;;
77451;SDS011;66537;52.370;4.832;2024-03-06T06:24:48;54.08;;;28.45;;
77451;SDS011;66537;52.370;4.832;2024-03-06T06:27:15;51.03;;;26.13;;
77451;SDS011;66537;52.370;4.832;2024-03-06T06:29:40;51.30;;;25.35;;
77451;SDS011;66537;52.370;4.832;2024-03-06T06:32:06;54.10;;;28.85;;
77451;SDS011;66537;52.370;4.832;2024-03-06T06:34:32;54.67;;;28.15;;
77451;SDS011;66537;52.370;4.832;2024-03-06T06:36:57;53.05;;;26.80;;
77451;SDS011;66537;52.370;4.832;2024-03-06T06:39:23;57.15;;;28.70;;
77451;SDS011;66537;52.370;4.832;2024-03-06T06:41:49;49.07;;;26.07;;
77451;SDS011;66537;52.370;4.832;2024-03-06T06:44:14;50.53;;;25.33;;
77451;SDS011;66537;52.370;4.832;2024-03-06T06:46:39;52.05;;;27.23;;
77451;SDS011;66537;52.370;4.832;2024-03-06T06:49:05;52.60;;;27.33;;
77451;SDS011;66537;52.370;4.832;2024-03-06T06:51:30;51.30;;;26.65;;
77451;SDS011;66537;52.370;4.832;2024-03-06T06:53:55;49.53;;;25.40;;
77451;SDS011;66537;52.370;4.832;2024-03-06T06:56:24;51.17;;;26.35;;
77451;SDS011;66537;52.370;4.832;2024-03-06T06:58:50;53.78;;;27.27;;
77451;SDS011;66537;52.370;4.832;2024-03-06T07:01:15;54.58;;;28.17;;
77451;SDS011;66537;52.370;4.832;2024-03-06T07:03:44;54.28;;;28.75;;
77451;SDS011;66537;52.370;4.832;2024-03-06T07:06:10;51.23;;;26.13;;
77451;SDS011;66537;52.370;4.832;2024-03-06T07:08:36;53.45;;;27.27;;
77451;SDS011;66537;52.370;4.832;2024-03-06T07:11:02;56.67;;;27.95;;
77451;SDS011;66537;52.370;4.832;2024-03-06T07:13:27;61.17;;;30.88;;
77451;SDS011;66537;52.370;4.832;2024-03-06T07:15:53;56.75;;;28.92;;
77451;SDS011;66537;52.370;4.832;2024-03-06T07:18:18;57.23;;;29.70;;
77451;SDS011;66537;52.370;4.832;2024-03-06T07:20:43;59.08;;;29.10;;
77451;SDS011;66537;52.370;4.832;2024-03-06T07:23:09;49.88;;;25.85;;
77451;SDS011;66537;52.370;4.832;2024-03-06T07:25:34;52.63;;;26.03;;
77451;SDS011;66537;52.370;4.832;2024-03-06T07:27:59;48.60;;;25.17;;
77451;SDS011;66537;52.370;4.832;2024-03-06T07:30:25;52.53;;;25.10;;
77451;SDS011;66537;52.370;4.832;2024-03-06T07:32:50;51.93;;;27.40;;
77451;SDS011;66537;52.370;4.832;2024-03-06T07:35:15;49.95;;;25.50;;
77451;SDS011;66537;52.370;4.832;2024-03-06T07:37:42;53.95;;;27.00;;
77451;SDS011;66537;52.370;4.832;2024-03-06T07:40:09;48.60;;;25.80;;
77451;SDS011;66537;52.370;4.832;2024-03-06T07:42:35;51.83;;;26.05;;
77451;SDS011;66537;52.370;4.832;2024-03-06T07:45:00;50.13;;;26.20;;
77451;SDS011;66537;52.370;4.832;2024-03-06T07:47:25;46.57;;;24.80;;
77451;SDS011;66537;52.370;4.832;2024-03-06T07:49:51;47.53;;;25.60;;
77451;SDS011;66537;52.370;4.832;2024-03-06T07:52:17;45.22;;;23.25;;
77451;SDS011;66537;52.370;4.832;2024-03-06T07:54:42;48.37;;;25.40;;
77451;SDS011;66537;52.370;4.832;2024-03-06T07:57:07;41.70;;;22.07;;
77451;SDS011;66537;52.370;4.832;2024-03-06T07:59:34;43.80;;;22.70;;
77451;SDS011;66537;52.370;4.832;2024-03-06T08:02:00;43.92;;;22.67;;
77451;SDS011;66537;52.370;4.832;2024-03-06T08:04:26;45.58;;;23.27;;
77451;SDS011;66537;52.370;4.832;2024-03-06T08:06:52;43.50;;;23.40;;
77451;SDS011;66537;52.370;4.832;2024-03-06T08:09:17;47.72;;;24.10;;
77451;SDS011;66537;52.370;4.832;2024-03-06T08:11:44;50.95;;;24.98;;
77451;SDS011;66537;52.370;4.832;2024-03-06T08:14:10;48.40;;;25.55;;
77451;SDS011;66537;52.370;4.832;2024-03-06T08:16:35;52.30;;;26.37;;
77451;SDS011;66537;52.370;4.832;2024-03-06T08:19:02;49.95;;;25.73;;
77451;SDS011;66537;52.370;4.832;2024-03-06T08:21:27;48.83;;;26.07;;
77451;SDS011;66537;52.370;4.832;2024-03-06T08:23:53;50.28;;;26.77;;
77451;SDS011;66537;52.370;4.832;2024-03-06T08:26:19;58.90;;;28.48;;
77451;SDS011;66537;52.370;4.832;2024-03-06T08:28:44;47.47;;;25.00;;
77451;SDS011;66537;52.370;4.832;2024-03-06T08:31:10;47.60;;;25.33;;
77451;SDS011;66537;52.370;4.832;2024-03-06T08:33:35;48.03;;;26.17;;
77451;SDS011;66537;52.370;4.832;2024-03-06T08:36:00;50.10;;;27.40;;
77451;SDS011;66537;52.370;4.832;2024-03-06T08:38:26;55.90;;;28.20;;
77451;SDS011;66537;52.370;4.832;2024-03-06T08:40:51;52.13;;;26.92;;
77451;SDS011;66537;52.370;4.832;2024-03-06T08:43:17;53.20;;;27.15;;
77451;SDS011;66537;52.370;4.832;2024-03-06T08:45:44;51.20;;;26.13;;
77451;SDS011;66537;52.370;4.832;2024-03-06T08:48:10;51.72;;;26.13;;
77451;SDS011;66537;52.370;4.832;2024-03-06T08:50:36;49.08;;;25.83;;
77451;SDS011;66537;52.370;4.832;2024-03-06T08:53:02;46.92;;;24.75;;
77451;SDS011;66537;52.370;4.832;2024-03-06T08:55:27;47.95;;;25.17;;
77451;SDS011;66537;52.370;4.832;2024-03-06T08:57:53;50.72;;;26.15;;
77451;SDS011;66537;52.370;4.832;2024-03-06T09:00:19;51.30;;;26.90;;
77451;SDS011;66537;52.370;4.832;2024-03-06T09:02:44;46.30;;;23.88;;
77451;SDS011;66537;52.370;4.832;2024-03-06T09:05:10;46.55;;;25.30;;
77451;SDS011;66537;52.370;4.832;2024-03-06T09:07:37;48.50;;;25.77;;
77451;SDS011;66537;52.370;4.832;2024-03-06T09:10:06;48.95;;;24.55;;
77451;SDS011;66537;52.370;4.832;2024-03-06T09:12:40;43.35;;;22.55;;
77451;SDS011;66537;52.370;4.832;2024-03-06T09:15:06;44.47;;;22.77;;
77451;SDS011;66537;52.370;4.832;2024-03-06T09:17:36;55.83;;;24.73;;
77451;SDS011;66537;52.370;4.832;2024-03-06T09:20:02;46.00;;;20.73;;
77451;SDS011;66537;52.370;4.832;2024-03-06T09:22:35;42.15;;;21.55;;
77451;SDS011;66537;52.370;4.832;2024-03-06T09:25:04;43.95;;;22.48;;
77451;SDS011;66537;52.370;4.832;2024-03-06T09:27:30;42.25;;;21.33;;
77451;SDS011;66537;52.370;4.832;2024-03-06T09:29:56;33.13;;;18.50;;
77451;SDS011;66537;52.370;4.832;2024-03-06T09:32:21;32.10;;;17.60;;
77451;SDS011;66537;52.370;4.832;2024-03-06T09:34:47;32.55;;;17.10;;
77451;SDS011;66537;52.370;4.832;2024-03-06T09:37:13;33.55;;;19.38;;
77451;SDS011;66537;52.370;4.832;2024-03-06T09:39:38;31.50;;;17.52;;
77451;SDS011;66537;52.370;4.832;2024-03-06T09:42:04;31.20;;;15.97;;
77451;SDS011;66537;52.370;4.832;2024-03-06T09:44:29;25.27;;;13.60;;
77451;SDS011;66537;52.370;4.832;2024-03-06T09:46:55;25.67;;;13.35;;
77451;SDS011;66537;52.370;4.832;2024-03-06T09:49:27;26.27;;;14.48;;
77451;SDS011;66537;52.370;4.832;2024-03-06T09:51:52;29.30;;;14.68;;
77451;SDS011;66537;52.370;4.832;2024-03-06T09:54:20;27.75;;;14.52;;
77451;SDS011;66537;52.370;4.832;2024-03-06T09:56:47;31.52;;;16.08;;
77451;SDS011;66537;52.370;4.832;2024-03-06T09:59:13;32.05;;;15.45;;
77451;SDS011;66537;52.370;4.832;2024-03-06T10:01:54;24.08;;;14.25;;
77451;SDS011;66537;52.370;4.832;2024-03-06T10:04:25;26.17;;;14.00;;
77451;SDS011;66537;52.370;4.832;2024-03-06T10:06:55;22.15;;;11.77;;
77451;SDS011;66537;52.370;4.832;2024-03-06T10:09:22;25.35;;;13.80;;
77451;SDS011;66537;52.370;4.832;2024-03-06T10:11:48;25.88;;;14.23;;
77451;SDS011;66537;52.370;4.832;2024-03-06T10:14:14;32.60;;;16.20;;
77451;SDS011;66537;52.370;4.832;2024-03-06T10:16:56;28.52;;;14.68;;
77451;SDS011;66537;52.370;4.832;2024-03-06T10:19:24;31.08;;;14.32;;
77451;SDS011;66537;52.370;4.832;2024-03-06T10:21:52;28.50;;;14.05;;
77451;SDS011;66537;52.370;4.832;2024-03-06T10:24:22;26.23;;;12.93;;
77451;SDS011;66537;52.370;4.832;2024-03-06T10:26:51;22.02;;;12.63;;
77451;SDS011;66537;52.370;4.832;2024-03-06T10:29:20;25.45;;;13.10;;
77451;SDS011;66537;52.370;4.832;2024-03-06T10:31:50;25.00;;;12.55;;
77451;SDS011;66537;52.370;4.832;2024-03-06T10:34:17;26.80;;;13.85;;
77451;SDS011;66537;52.370;4.832;2024-03-06T10:36:43;27.52;;;13.80;;
77451;SDS011;66537;52.370;4.832;2024-03-06T10:39:10;29.70;;;15.90;;
77451;SDS011;66537;52.370;4.832;2024-03-06T10:41:41;28.50;;;15.80;;
77451;SDS011;66537;52.370;4.832;2024-03-06T10:44:09;27.63;;;15.30;;
77451;SDS011;66537;52.370;4.832;2024-03-06T10:46:38;24.75;;;14.15;;
77451;SDS011;66537;52.370;4.832;2024-03-06T10:49:11;27.92;;;15.27;;
77451;SDS011;66537;52.370;4.832;2024-03-06T10:51:38;28.05;;;15.02;;
77451;SDS011;66537;52.370;4.832;2024-03-06T10:54:08;27.83;;;14.88;;
77451;SDS011;66537;52.370;4.832;2024-03-06T10:56:33;30.33;;;14.98;;
77451;SDS011;66537;52.370;4.832;2024-03-06T10:58:59;28.08;;;16.05;;
77451;SDS011;66537;52.370;4.832;2024-03-06T11:01:24;30.47;;;15.27;;
77451;SDS011;66537;52.370;4.832;2024-03-06T11:03:50;27.00;;;14.98;;
77451;SDS011;66537;52.370;4.832;2024-03-06T11:06:17;27.05;;;16.23;;
77451;SDS011;66537;52.370;4.832;2024-03-06T11:08:42;28.27;;;16.55;;
77451;SDS011;66537;52.370;4.832;2024-03-06T11:11:21;29.13;;;15.60;;
77451;SDS011;66537;52.370;4.832;2024-03-06T11:13:47;26.23;;;14.07;;
77451;SDS011;66537;52.370;4.832;2024-03-06T11:16:12;29.48;;;16.52;;
77451;SDS011;66537;52.370;4.832;2024-03-06T11:23:33;25.48;;;14.30;;
77451;SDS011;66537;52.370;4.832;2024-03-06T11:26:02;27.95;;;15.68;;
77451;SDS011;66537;52.370;4.832;2024-03-06T11:28:35;22.92;;;13.93;;
77451;SDS011;66537;52.370;4.832;2024-03-06T11:33:35;27.52;;;15.45;;
77451;SDS011;66537;52.370;4.832;2024-03-06T11:36:21;26.67;;;14.10;;
77451;SDS011;66537;52.370;4.832;2024-03-06T11:38:57;27.67;;;16.48;;
77451;SDS011;66537;52.370;4.832;2024-03-06T11:41:23;30.10;;;17.38;;
77451;SDS011;66537;52.370;4.832;2024-03-06T11:43:53;26.70;;;15.05;;
77451;SDS011;66537;52.370;4.832;2024-03-06T11:46:20;27.27;;;16.13;;
77451;SDS011;66537;52.370;4.832;2024-03-06T11:49:13;30.15;;;16.00;;
77451;SDS011;66537;52.370;4.832;2024-03-06T11:51:57;25.55;;;15.13;;
77451;SDS011;66537;52.370;4.832;2024-03-06T11:54:25;25.20;;;14.45;;
77451;SDS011;66537;52.370;4.832;2024-03-06T11:56:52;24.48;;;13.70;;
77451;SDS011;66537;52.370;4.832;2024-03-06T11:59:22;29.95;;;14.77;;
77451;SDS011;66537;52.370;4.832;2024-03-06T12:01:48;25.40;;;13.82;;
77451;SDS011;66537;52.370;4.832;2024-03-06T12:04:13;23.98;;;13.35;;
77451;SDS011;66537;52.370;4.832;2024-03-06T12:06:39;23.67;;;13.00;;
77451;SDS011;66537;52.370;4.832;2024-03-06T12:09:04;28.23;;;14.33;;
77451;SDS011;66537;52.370;4.832;2024-03-06T12:11:29;34.85;;;15.93;;
77451;SDS011;66537;52.370;4.832;2024-03-06T12:13:56;28.30;;;14.23;;
77451;SDS011;66537;52.370;4.832;2024-03-06T12:16:24;23.23;;;13.95;;
77451;SDS011;66537;52.370;4.832;2024-03-06T12:18:56;24.87;;;14.23;;
77451;SDS011;66537;52.370;4.832;2024-03-06T12:21:30;27.45;;;14.15;;
77451;SDS011;66537;52.370;4.832;2024-03-06T12:24:03;27.58;;;13.45;;
77451;SDS011;66537;52.370;4.832;2024-03-06T12:26:29;23.77;;;12.93;;
77451;SDS011;66537;52.370;4.832;2024-03-06T12:29:03;23.45;;;13.68;;
77451;SDS011;66537;52.370;4.832;2024-03-06T12:31:30;23.50;;;13.73;;
77451;SDS011;66537;52.370;4.832;2024-03-06T12:33:56;19.75;;;10.85;;
77451;SDS011;66537;52.370;4.832;2024-03-06T12:36:24;18.75;;;11.05;;
77451;SDS011;66537;52.370;4.832;2024-03-06T12:38:55;19.27;;;10.98;;
77451;SDS011;66537;52.370;4.832;2024-03-06T12:41:21;19.77;;;10.75;;
77451;SDS011;66537;52.370;4.832;2024-03-06T12:43:47;17.45;;;8.35;;
77451;SDS011;66537;52.370;4.832;2024-03-06T12:46:12;15.60;;;8.80;;
77451;SDS011;66537;52.370;4.832;2024-03-06T12:48:38;19.83;;;9.38;;
77451;SDS011;66537;52.370;4.832;2024-03-06T12:51:03;16.83;;;9.07;;
77451;SDS011;66537;52.370;4.832;2024-03-06T12:53:32;19.33;;;9.32;;
77451;SDS011;66537;52.370;4.832;2024-03-06T12:56:00;17.30;;;8.90;;
77451;SDS011;66537;52.370;4.832;2024-03-06T12:58:26;14.32;;;7.88;;
77451;SDS011;66537;52.370;4.832;2024-03-06T13:00:51;14.18;;;7.05;;
77451;SDS011;66537;52.370;4.832;2024-03-06T13:03:17;12.70;;;6.15;;
77451;SDS011;66537;52.370;4.832;2024-03-06T13:05:43;14.95;;;6.88;;
77451;SDS011;66537;52.370;4.832;2024-03-06T13:08:08;16.85;;;7.80;;
77451;SDS011;66537;52.370;4.832;2024-03-06T13:10:34;12.27;;;6.47;;
77451;SDS011;66537;52.370;4.832;2024-03-06T13:13:00;12.10;;;5.00;;
77451;SDS011;66537;52.370;4.832;2024-03-06T13:15:26;10.43;;;4.88;;
77451;SDS011;66537;52.370;4.832;2024-03-06T13:17:51;12.05;;;4.90;;
77451;SDS011;66537;52.370;4.832;2024-03-06T13:20:16;12.67;;;5.17;;
77451;SDS011;66537;52.370;4.832;2024-03-06T13:22:42;15.20;;;7.20;;
77451;SDS011;66537;52.370;4.832;2024-03-06T13:25:09;15.70;;;6.57;;
77451;SDS011;66537;52.370;4.832;2024-03-06T13:27:35;13.77;;;6.43;;
77451;SDS011;66537;52.370;4.832;2024-03-06T13:30:00;14.35;;;6.30;;
77451;SDS011;66537;52.370;4.832;2024-03-06T13:32:25;16.58;;;6.70;;
77451;SDS011;66537;52.370;4.832;2024-03-06T13:34:51;13.75;;;6.65;;
77451;SDS011;66537;52.370;4.832;2024-03-06T13:37:16;13.40;;;6.50;;
77451;SDS011;66537;52.370;4.832;2024-03-06T13:39:42;15.65;;;7.32;;
77451;SDS011;66537;52.370;4.832;2024-03-06T13:42:07;12.35;;;6.72;;
77451;SDS011;66537;52.370;4.832;2024-03-06T13:44:34;13.75;;;7.20;;
77451;SDS011;66537;52.370;4.832;2024-03-06T13:47:02;11.40;;;5.88;;
77451;SDS011;66537;52.370;4.832;2024-03-06T13:49:38;10.65;;;5.57;;
77451;SDS011;66537;52.370;4.832;2024-03-06T13:54:32;12.98;;;5.90;;
77451;SDS011;66537;52.370;4.832;2024-03-06T13:56:58;14.10;;;5.80;;
77451;SDS011;66537;52.370;4.832;2024-03-06T13:59:33;12.63;;;5.50;;
77451;SDS011;66537;52.370;4.832;2024-03-06T14:01:58;10.75;;;4.75;;
77451;SDS011;66537;52.370;4.832;2024-03-06T14:04:24;10.52;;;5.18;;
77451;SDS011;66537;52.370;4.832;2024-03-06T14:06:50;15.25;;;5.68;;
77451;SDS011;66537;52.370;4.832;2024-03-06T14:09:15;26.08;;;12.55;;
77451;SDS011;66537;52.370;4.832;2024-03-06T14:11:41;25.33;;;13.05;;
77451;SDS011;66537;52.370;4.832;2024-03-06T14:14:06;24.88;;;12.40;;
77451;SDS011;66537;52.370;4.832;2024-03-06T14:16:33;27.98;;;12.02;;
77451;SDS011;66537;52.370;4.832;2024-03-06T14:18:59;26.75;;;11.98;;
77451;SDS011;66537;52.370;4.832;2024-03-06T14:21:25;24.90;;;12.52;;
77451;SDS011;66537;52.370;4.832;2024-03-06T14:23:50;25.42;;;12.15;;
77451;SDS011;66537;52.370;4.832;2024-03-06T14:26:16;24.00;;;12.03;;
77451;SDS011;66537;52.370;4.832;2024-03-06T14:28:41;27.63;;;14.48;;